Time;durP1;ratioP1;P1;durP2;ratioP2;P2;SDS_P1;SDS_P2;PMS_P1;PMS_P2;Temp;Humidity;BMP_temperature;BMP_pressure;BME280_temperature;BME280_humidity;BME280_pressure;Samples;Min_cycle;Max_cycle;Signal;HPM_P1;HPM_P2
2023/02/11 00:00:48;;;;;;;91.80;37.90;;;;;;;-2.11;84.67;100725.21;270170;1269;22653;-86
2023/02/11 00:07:01;;;;;;;83.90;38.10;;;;;;;-2.17;84.58;100721.92;270268;1269;23378;-88
2023/02/11 00:13:03;;;;;;;81.10;36.80;;;;;;;-2.26;84.41;100710.92;270494;1269;22556;-86
2023/02/11 00:19:05;;;;;;;71.40;33.70;;;;;;;-2.32;84.94;100712.98;272612;1270;22296;-88
2023/02/11 00:25:07;;;;;;;67.80;30.90;;;;;;;-2.37;85.28;100711.80;273522;1269;22266;-88
2023/02/11 00:31:09;;;;;;;65.30;30.80;;;;;;;-2.45;85.72;100708.52;269985;1269;22646;-87
2023/02/11 00:37:15;;;;;;;68.90;29.60;;;;;;;-2.49;86.14;100694.21;271537;1268;23885;-87
2023/02/11 00:43:38;;;;;;;79.30;33.00;;;;;;;-2.53;85.89;100684.52;270117;1254;23094;-87
2023/02/11 00:49:39;;;;;;;76.20;34.50;;;;;;;-2.68;86.00;100682.38;270050;1270;24224;-87
2023/02/11 00:55:41;;;;;;;73.80;32.10;;;;;;;-2.80;86.11;100675.25;271073;1269;22545;-87
2023/02/11 01:01:51;;;;;;;80.10;34.00;;;;;;;-2.84;86.88;100660.98;269544;1270;23830;-86
2023/02/11 01:07:52;;;;;;;76.60;34.90;;;;;;;-2.88;87.08;100654.12;270088;1270;22743;-86
2023/02/11 01:13:54;;;;;;;72.30;34.10;;;;;;;-2.91;87.46;100642.92;269901;1268;23871;-87
2023/02/11 01:19:56;;;;;;;66.00;29.70;;;;;;;-2.96;87.09;100613.34;270375;1270;22560;-86
2023/02/11 01:25:58;;;;;;;67.60;32.70;;;;;;;-2.95;87.31;100586.34;270749;1269;22552;-85
2023/02/11 01:32:26;;;;;;;58.80;26.70;;;;;;;-2.97;87.37;100582.61;270458;1270;24032;-86
2023/02/11 01:38:28;;;;;;;58.30;27.10;;;;;;;-2.99;87.55;100589.88;269629;1269;22539;-86
2023/02/11 01:44:53;;;;;;;57.80;25.40;;;;;;;-3.00;87.82;100583.11;269709;1269;22613;-86
2023/02/11 01:51:54;;;;;;;67.00;29.60;;;;;;;-3.02;87.82;100565.66;269703;1269;22792;-87
2023/02/11 01:58:05;;;;;;;60.10;26.10;;;;;;;-3.07;87.82;100566.66;269728;1269;22535;-86
2023/02/11 02:04:08;;;;;;;59.00;24.20;;;;;;;-3.06;87.93;100549.38;269511;1263;23766;-86
2023/02/11 02:10:46;;;;;;;64.00;24.90;;;;;;;-2.92;88.09;100533.27;269609;1270;24320;-86
2023/02/11 02:17:30;;;;;;;52.70;22.40;;;;;;;-2.77;88.16;100524.71;269426;1269;23809;-87
2023/02/11 02:24:19;;;;;;;50.70;23.50;;;;;;;-2.63;88.18;100522.61;269706;1270;22590;-86
2023/02/11 02:30:47;;;;;;;61.40;25.30;;;;;;;-2.55;88.30;100530.91;269826;1269;22535;-87
2023/02/11 02:37:05;;;;;;;54.80;25.50;;;;;;;-2.55;88.27;100547.20;270520;1269;23898;-86
2023/02/11 02:43:07;;;;;;;62.20;26.60;;;;;;;-2.61;88.18;100544.03;271582;1269;25411;-87
2023/02/11 02:49:13;;;;;;;55.90;24.80;;;;;;;-2.59;88.35;100535.77;271643;1270;23216;-87
2023/02/11 02:55:42;;;;;;;58.30;26.60;;;;;;;-2.55;88.10;100515.51;273529;1269;22227;-87
2023/02/11 03:01:58;;;;;;;54.00;24.70;;;;;;;-2.49;88.33;100502.75;273564;1269;22910;-87
2023/02/11 03:08:07;;;;;;;60.20;26.10;;;;;;;-2.43;88.65;100489.57;273542;1269;22844;-88
2023/02/11 03:14:11;;;;;;;55.20;26.40;;;;;;;-2.38;88.81;100486.55;272632;1268;23889;-87
2023/02/11 03:20:18;;;;;;;53.30;22.50;;;;;;;-2.34;88.86;100470.13;269905;1269;22608;-88
2023/02/11 03:26:25;;;;;;;49.70;22.30;;;;;;;-2.24;88.24;100436.52;270035;1269;22570;-87
2023/02/11 03:32:35;;;;;;;;;;;;;;;-2.12;88.09;100403.52;270284;1268;22724;-87
2023/02/11 03:38:44;;;;;;;51.30;22.50;;;;;;;-2.03;88.22;100387.84;269938;1267;22534;-88
2023/02/11 03:44:52;;;;;;;48.90;21.20;;;;;;;-1.96;88.64;100383.80;272385;1269;22485;-87
2023/02/11 03:50:55;;;;;;;47.90;23.30;;;;;;;-1.88;88.42;100362.86;270757;1269;23786;-88
2023/02/11 03:56:58;;;;;;;43.50;19.20;;;;;;;-1.75;88.43;100355.41;270416;1268;22342;-89
2023/02/11 04:03:00;;;;;;;46.50;20.10;;;;;;;-1.65;88.62;100366.94;270438;1269;22728;-89
2023/02/11 04:09:05;;;;;;;43.60;21.90;;;;;;;-1.60;88.79;100373.63;270824;1267;23702;-88
2023/02/11 04:15:08;;;;;;;45.30;21.10;;;;;;;-1.58;88.78;100357.84;273488;1268;22433;-89
2023/02/11 04:21:10;;;;;;;53.80;25.90;;;;;;;-1.56;88.81;100338.84;273439;1269;22343;-89
2023/02/11 04:27:14;;;;;;;61.00;30.00;;;;;;;-1.62;88.53;100334.30;273274;1269;22341;-88
2023/02/11 04:33:16;;;;;;;59.70;28.20;;;;;;;-1.74;88.30;100313.42;271420;1259;22673;-88
2023/02/11 04:39:20;;;;;;;79.60;33.70;;;;;;;-1.80;88.39;100289.98;270694;1269;22663;-89
2023/02/11 04:45:21;;;;;;;67.60;30.60;;;;;;;-1.86;88.28;100295.55;269856;1267;69346;-87
2023/02/11 04:51:23;;;;;;;69.00;31.50;;;;;;;-1.93;88.69;100288.86;271003;1257;22579;-88
2023/02/11 04:57:25;;;;;;;58.90;29.00;;;;;;;-1.94;88.90;100289.73;271509;1268;22375;-86
2023/02/11 05:03:27;;;;;;;64.10;29.90;;;;;;;-1.92;89.06;100294.98;271338;1268;23392;-87
2023/02/11 05:09:29;;;;;;;65.40;31.90;;;;;;;-1.93;89.00;100307.16;273690;1267;22190;-87
2023/02/11 05:15:30;;;;;;;56.60;26.50;;;;;;;-1.99;89.14;100321.58;273726;1267;22906;-87
2023/02/11 05:21:32;;;;;;;53.10;26.00;;;;;;;-2.00;89.25;100319.91;273251;1267;22380;-86
2023/02/11 05:27:34;;;;;;;57.70;27.60;;;;;;;-2.04;89.36;100308.30;273667;1260;22502;-87
2023/02/11 05:33:36;;;;;;;56.60;27.20;;;;;;;-2.04;89.91;100297.09;273660;1267;22197;-86
2023/02/11 05:39:38;;;;;;;58.10;28.00;;;;;;;-2.04;90.10;100292.47;273651;1260;22341;-87
2023/02/11 05:45:40;;;;;;;59.80;29.70;;;;;;;-1.96;90.49;100303.13;273498;1267;22370;-87
2023/02/11 05:51:42;;;;;;;63.00;29.90;;;;;;;-1.88;90.60;100301.29;273500;1260;22279;-88
2023/02/11 05:57:43;;;;;;;64.60;32.30;;;;;;;-1.78;90.15;100286.67;272868;1256;23389;-87
2023/02/11 06:03:45;;;;;;;70.00;32.20;;;;;;;-1.70;90.62;100292.07;273063;1267;22345;-87
2023/02/11 06:09:47;;;;;;;73.80;35.20;;;;;;;-1.66;90.56;100299.06;273582;1269;22372;-87
2023/02/11 06:15:56;;;;;;;70.80;34.10;;;;;;;-1.62;90.34;100308.30;270133;1267;22543;-86
2023/02/11 06:21:58;;;;;;;69.90;32.20;;;;;;;-1.58;90.06;100294.36;269287;1268;22506;-88
2023/02/11 06:28:00;;;;;;;78.20;36.40;;;;;;;-1.57;90.16;100262.79;270001;1257;22547;-87
2023/02/11 06:34:02;;;;;;;112.40;51.50;;;;;;;-1.61;89.94;100225.56;270217;1267;22540;-87
2023/02/11 06:40:04;;;;;;;84.60;39.10;;;;;;;-1.59;90.38;100205.20;270585;1267;23286;-87
2023/02/11 06:46:06;;;;;;;65.40;32.50;;;;;;;-1.52;90.73;100207.09;269914;1267;23416;-86
2023/02/11 06:52:08;;;;;;;68.10;31.60;;;;;;;-1.43;91.11;100210.55;270212;1269;22612;-87
2023/02/11 06:58:09;;;;;;;59.30;29.70;;;;;;;-1.32;91.19;100205.83;270303;1268;24530;-87
2023/02/11 07:04:13;;;;;;;53.70;28.70;;;;;;;-1.21;90.98;100208.36;269953;1267;23429;-87
2023/02/11 07:10:15;;;;;;;59.80;28.20;;;;;;;-1.08;90.84;100202.44;272286;1267;22527;-88
2023/02/11 07:16:17;;;;;;;58.20;28.10;;;;;;;-0.91;90.69;100214.74;272625;1267;22585;-88
2023/02/11 07:22:19;;;;;;;49.10;23.80;;;;;;;-0.76;90.73;100229.41;272145;1268;23080;-89
2023/02/11 07:28:21;;;;;;;53.60;25.20;;;;;;;-0.60;90.67;100225.34;273744;1267;23415;-89
2023/02/11 07:34:23;;;;;;;122.30;56.00;;;;;;;-0.51;90.16;100226.08;272283;1259;22533;-88
2023/02/11 07:40:25;;;;;;;102.80;50.70;;;;;;;-0.63;89.81;100223.20;272581;1267;22343;-88
2023/02/11 07:46:27;;;;;;;97.70;51.20;;;;;;;-0.67;90.19;100207.88;271633;1266;23368;-88
2023/02/11 07:52:30;;;;;;;102.40;50.60;;;;;;;-0.62;90.30;100200.98;269751;1267;22358;-87
2023/02/11 07:58:33;;;;;;;90.60;44.50;;;;;;;-0.53;90.19;100204.13;270964;1253;23343;-87
2023/02/11 08:04:47;;;;;;;94.80;46.80;;;;;;;-0.37;90.33;100206.13;271795;1255;22359;-87
2023/02/11 08:10:48;;;;;;;84.40;40.70;;;;;;;-0.08;90.52;100209.35;270954;1260;22242;-87
2023/02/11 08:17:05;;;;;;;74.40;34.80;;;;;;;0.33;90.56;100202.89;274052;1270;22212;-90
2023/02/11 08:23:07;;;;;;;75.80;36.00;;;;;;;0.78;90.10;100197.55;271783;1267;24234;-87
2023/02/11 08:29:11;;;;;;;76.00;37.40;;;;;;;1.35;89.78;100187.37;271687;1267;25907;-88
2023/02/11 08:35:13;;;;;;;67.60;34.90;;;;;;;1.97;89.41;100175.25;270112;1267;22999;-87
2023/02/11 08:41:16;;;;;;;64.80;31.90;;;;;;;2.62;88.79;100166.36;269367;1257;22536;-88
2023/02/11 08:47:18;;;;;;;60.40;31.20;;;;;;;3.39;88.21;100172.70;269740;1268;22504;-89
2023/02/11 08:53:20;;;;;;;51.70;27.30;;;;;;;3.98;87.05;100176.55;269647;1267;25425;-89
2023/02/11 08:59:22;;;;;;;50.00;25.70;;;;;;;4.62;86.13;100187.21;269922;1266;22550;-88
2023/02/11 09:05:24;;;;;;;44.40;25.20;;;;;;;5.39;84.69;100188.38;269730;1258;23336;-90
2023/02/11 09:11:29;;;;;;;44.60;23.50;;;;;;;5.93;83.40;100174.82;269539;1267;23351;-92
2023/02/11 09:17:31;;;;;;;44.50;24.00;;;;;;;6.37;81.77;100167.10;269647;1268;23674;-90
2023/02/11 09:23:33;;;;;;;42.50;22.70;;;;;;;6.69;80.76;100168.62;269918;1269;22643;-90
2023/02/11 09:29:35;;;;;;;37.40;20.90;;;;;;;7.23;79.85;100168.23;270245;1269;106651;-89
2023/02/11 09:35:37;;;;;;;32.60;19.20;;;;;;;7.05;78.35;100153.79;272256;1265;23233;-90
2023/02/11 09:41:55;;;;;;;35.30;18.40;;;;;;;6.50;76.85;100158.85;272780;1269;22577;-89
2023/02/11 09:48:00;;;;;;;27.70;16.10;;;;;;;5.99;75.51;100172.13;269850;1268;24264;-89
2023/02/11 09:54:08;;;;;;;32.90;16.30;;;;;;;5.62;75.46;100179.88;270423;1269;22579;-88
2023/02/11 10:00:31;;;;;;;32.10;16.50;;;;;;;5.34;75.42;100178.30;269646;1269;22559;-89
2023/02/11 10:06:35;;;;;;;28.20;15.20;;;;;;;5.28;75.27;100180.96;270465;1268;22317;-88
2023/02/11 10:12:46;;;;;;;28.20;15.80;;;;;;;5.08;75.15;100178.44;270646;1267;23734;-89
2023/02/11 10:19:01;;;;;;;30.00;16.60;;;;;;;4.87;75.08;100168.71;270138;1267;23707;-89
2023/02/11 10:25:25;;;;;;;28.70;15.30;;;;;;;4.76;74.79;100152.22;269792;1267;25636;-91
2023/02/11 10:31:35;;;;;;;29.30;17.20;;;;;;;4.72;74.72;100130.33;269436;1267;23486;-91
2023/02/11 10:37:37;;;;;;;32.30;17.10;;;;;;;4.75;74.77;100125.23;269720;1267;23908;-87
2023/02/11 10:43:40;;;;;;;31.40;17.80;;;;;;;4.75;74.22;100109.23;270347;1267;22374;-89
2023/02/11 10:49:44;;;;;;;36.40;18.20;;;;;;;4.82;74.50;100096.19;270127;1267;22530;-90
2023/02/11 10:55:50;;;;;;;38.00;19.10;;;;;;;5.07;74.29;100078.48;271702;1267;25180;-90
2023/02/11 11:01:56;;;;;;;36.10;19.50;;;;;;;5.56;74.31;100055.54;270616;1269;22563;-89
2023/02/11 11:08:01;;;;;;;33.50;18.60;;;;;;;6.24;73.46;100037.21;273033;1269;22245;-91
2023/02/11 11:14:03;;;;;;;35.20;20.00;;;;;;;6.27;72.17;100023.67;272155;1269;22613;-88
2023/02/11 11:20:26;;;;;;;32.80;19.20;;;;;;;6.14;71.75;100000.89;270392;1267;22539;-90
2023/02/11 11:26:44;;;;;;;31.70;18.00;;;;;;;6.09;72.27;99976.46;272173;1267;23109;-90
2023/02/11 11:32:46;;;;;;;32.70;17.10;;;;;;;6.36;72.54;99988.35;269812;1269;23035;-89
2023/02/11 11:38:56;;;;;;;35.40;19.90;;;;;;;6.34;70.70;99990.66;271140;1267;22383;-90
2023/02/11 11:45:21;;;;;;;31.70;17.70;;;;;;;6.15;69.79;99986.49;272704;1267;22412;-89
2023/02/11 11:51:24;;;;;;;32.40;18.70;;;;;;;6.05;69.56;99975.02;273701;1267;23080;-91
2023/02/11 11:57:30;;;;;;;31.20;17.90;;;;;;;6.03;69.26;99984.50;273743;1267;22344;-92
2023/02/11 12:03:41;;;;;;;37.00;21.20;;;;;;;5.86;68.95;100003.41;273094;1267;22605;-91
2023/02/11 12:09:58;;;;;;;35.70;19.60;;;;;;;5.67;69.03;99994.05;271535;1267;23282;-90
2023/02/11 12:16:26;;;;;;;30.20;16.50;;;;;;;5.60;69.25;99998.27;272096;1267;22377;-91
2023/02/11 12:22:59;;;;;;;39.10;22.00;;;;;;;5.50;69.38;100000.05;273462;1267;22477;-91
2023/02/11 12:29:42;;;;;;;37.00;19.10;;;;;;;5.28;69.67;100006.34;272926;1269;22203;-91
2023/02/11 12:36:01;;;;;;;40.00;20.90;;;;;;;5.10;70.55;100028.73;273648;1267;22355;-90
2023/02/11 12:48:49;;;;;;;40.60;21.00;;;;;;;4.95;71.87;100010.15;271119;1267;22551;-91
2023/02/11 12:54:58;;;;;;;42.00;21.80;;;;;;;4.83;72.22;99996.38;271563;1264;22332;-90
2023/02/11 13:01:05;;;;;;;41.30;22.50;;;;;;;4.70;72.23;99971.45;272915;1267;22214;-90
2023/02/11 13:07:15;;;;;;;47.70;23.40;;;;;;;4.59;72.38;99949.46;273663;1268;22217;-89
2023/02/11 13:13:33;;;;;;;41.70;23.10;;;;;;;4.51;72.47;99933.13;271252;1267;22557;-90
2023/02/11 13:19:41;;;;;;;39.80;21.40;;;;;;;4.44;72.89;99942.76;270026;1267;23883;-89
2023/02/11 13:26:17;;;;;;;40.60;20.70;;;;;;;4.34;73.68;99931.96;270421;1267;22939;-89
2023/02/11 13:32:19;;;;;;;43.50;20.20;;;;;;;4.17;74.76;99937.47;270539;1267;23397;-89
2023/02/11 13:38:23;;;;;;;43.30;23.50;;;;;;;4.05;75.28;99930.39;272666;1269;22280;-90
2023/02/11 13:44:26;;;;;;;39.80;21.70;;;;;;;4.04;75.45;99901.06;271182;1267;24409;-90
2023/02/11 13:50:37;;;;;;;47.50;24.30;;;;;;;4.04;76.01;99891.15;270253;1267;22634;-90
2023/02/11 13:56:42;;;;;;;47.90;24.80;;;;;;;4.03;76.30;99864.02;270212;1267;22325;-90
2023/02/11 14:09:34;;;;;;;42.70;23.50;;;;;;;4.01;77.04;99844.89;270206;1267;23274;-90
2023/02/11 14:15:39;;;;;;;45.40;22.40;;;;;;;4.00;77.47;99859.16;271024;1269;22343;-90
2023/02/11 14:21:43;;;;;;;44.60;22.00;;;;;;;3.95;77.88;99869.23;273032;1260;22331;-91
2023/02/11 14:28:06;;;;;;;43.30;22.90;;;;;;;3.86;78.25;99898.20;270483;1269;22337;-91
2023/02/11 14:34:11;;;;;;;47.10;24.20;;;;;;;3.77;78.49;99920.92;270072;1270;24673;-90
2023/02/11 14:40:28;;;;;;;50.80;25.60;;;;;;;3.65;78.95;99934.09;271822;1268;22525;-91
2023/02/11 14:46:31;;;;;;;48.00;25.30;;;;;;;3.55;79.33;99941.42;270413;1267;22256;-90
2023/02/11 14:52:36;;;;;;;51.70;25.50;;;;;;;3.46;79.77;99945.52;273510;1269;22456;-89
2023/02/11 14:58:45;;;;;;;42.00;23.50;;;;;;;3.40;80.22;99936.73;273482;1269;22326;-90
2023/02/11 15:04:47;;;;;;;47.60;24.10;;;;;;;3.34;80.65;99935.13;273351;1267;22405;-90
2023/02/11 15:10:49;;;;;;;48.80;23.20;;;;;;;3.26;81.05;99934.98;273475;1267;22344;-90
2023/02/11 15:16:52;;;;;;;47.70;24.30;;;;;;;3.19;81.41;99935.84;273649;1267;23096;-91
2023/02/11 15:22:58;;;;;;;46.20;25.70;;;;;;;3.07;82.10;99940.47;272498;1267;23308;-90
2023/02/11 15:29:00;;;;;;;47.90;25.70;;;;;;;2.95;82.83;99948.10;270570;1267;22568;-89
2023/02/11 15:35:02;;;;;;;53.10;27.10;;;;;;;2.77;83.77;99953.52;270994;1267;24043;-90
2023/02/11 15:41:06;;;;;;;54.50;28.90;;;;;;;2.62;84.85;99964.33;270186;1267;22558;-88
2023/02/11 15:47:10;;;;;;;46.30;25.70;;;;;;;2.50;85.82;99969.64;271386;1266;23710;-89
2023/02/11 15:53:27;;;;;;;60.90;29.20;;;;;;;2.39;87.00;99974.92;272053;1267;22558;-90
2023/02/11 15:59:37;;;;;;;51.30;24.80;;;;;;;2.30;88.25;99981.56;270012;1270;22206;-89
2023/02/11 16:05:39;;;;;;;61.70;29.20;;;;;;;2.23;88.83;99986.82;271104;1267;22502;-88
2023/02/11 16:11:47;;;;;;;61.40;30.30;;;;;;;2.17;89.56;99976.33;270719;1269;22526;-90
2023/02/11 16:17:49;;;;;;;67.30;29.50;;;;;;;2.10;90.58;99979.30;271886;1269;23080;-90
2023/02/11 16:23:55;;;;;;;60.80;29.80;;;;;;;2.05;91.26;99980.42;271350;1270;22578;-90
2023/02/11 16:29:58;;;;;;;60.40;30.80;;;;;;;2.00;91.73;99991.52;271106;1269;22332;-91
2023/02/11 16:36:09;;;;;;;69.00;33.90;;;;;;;1.97;92.53;100000.11;272089;1267;22571;-90
2023/02/11 16:42:11;;;;;;;58.90;28.90;;;;;;;1.95;93.20;99997.70;271114;1267;22571;-89
2023/02/11 16:48:17;;;;;;;63.20;32.10;;;;;;;1.94;94.34;100000.21;271393;1267;22663;-90
2023/02/11 16:54:19;;;;;;;62.50;30.00;;;;;;;1.95;94.79;100010.25;269760;1267;24487;-89
2023/02/11 17:00:23;;;;;;;59.80;30.20;;;;;;;1.97;95.21;100018.26;273229;1268;22348;-90
2023/02/11 17:06:26;;;;;;;58.60;29.00;;;;;;;1.99;96.10;100026.64;271389;1268;23423;-90
2023/02/11 17:12:36;;;;;;;72.30;33.50;;;;;;;1.98;96.26;100026.18;269831;1267;22517;-92
2023/02/11 17:18:38;;;;;;;75.00;36.20;;;;;;;1.98;96.68;100024.84;270532;1269;22230;-89
2023/02/11 17:24:44;;;;;;;69.50;34.50;;;;;;;1.96;96.90;100020.96;270697;1268;22567;-88
2023/02/11 17:30:46;;;;;;;71.20;33.40;;;;;;;1.94;97.35;100020.26;272287;1267;23111;-89
2023/02/11 17:36:49;;;;;;;58.20;28.40;;;;;;;1.93;97.78;100027.88;273118;1269;22339;-89
2023/02/11 17:42:51;;;;;;;63.30;32.30;;;;;;;1.93;98.41;100044.94;273539;1267;22936;-87
2023/02/11 17:48:54;;;;;;;62.30;30.80;;;;;;;1.93;98.60;100044.52;273444;1270;22388;-89
2023/02/11 17:54:56;;;;;;;63.90;31.10;;;;;;;1.93;98.91;100045.38;273628;1269;22368;-89
2023/02/11 18:00:58;;;;;;;59.80;30.80;;;;;;;1.94;99.05;100046.02;273741;1267;23532;-90
2023/02/11 18:07:02;;;;;;;63.50;33.20;;;;;;;1.95;98.96;100046.17;273562;1267;22434;-88
2023/02/11 18:13:04;;;;;;;59.50;31.10;;;;;;;1.98;98.87;100035.36;273638;1269;22237;-90
2023/02/11 18:19:06;;;;;;;59.80;30.70;;;;;;;2.01;99.46;100037.48;272079;1268;22572;-89
2023/02/11 18:25:10;;;;;;;60.00;31.10;;;;;;;2.03;99.68;100045.27;270665;1268;22174;-90
2023/02/11 18:31:12;;;;;;;61.90;30.40;;;;;;;2.03;99.81;100048.90;272661;1270;25367;-90
2023/02/11 18:37:17;;;;;;;58.20;30.00;;;;;;;2.07;99.97;100055.90;273676;1267;22403;-89
2023/02/11 18:43:22;;;;;;;52.50;28.60;;;;;;;2.11;100.00;100062.70;272914;1267;22526;-90
2023/02/11 18:49:26;;;;;;;62.90;31.20;;;;;;;2.14;100.00;100060.56;271951;1270;22331;-91
2023/02/11 18:55:30;;;;;;;59.60;30.30;;;;;;;2.16;100.00;100067.88;271435;1267;22573;-91
2023/02/11 19:01:33;;;;;;;57.20;30.00;;;;;;;2.20;100.00;100074.19;270529;1267;23468;-89
2023/02/11 19:07:35;;;;;;;53.30;27.90;;;;;;;2.19;100.00;100077.00;264651;1267;10002369;-89
2023/02/11 19:13:41;;;;;;;62.50;31.10;;;;;;;2.19;100.00;100079.02;273036;1267;22841;-91
2023/02/11 19:19:45;;;;;;;64.00;31.60;;;;;;;2.19;100.00;100082.80;273246;1267;22316;-90
2023/02/11 19:25:47;;;;;;;63.00;32.20;;;;;;;2.19;100.00;100085.98;273467;1267;22214;-89
2023/02/11 19:31:50;;;;;;;57.70;29.00;;;;;;;2.21;100.00;100084.98;273003;1266;22640;-90
2023/02/11 19:37:52;;;;;;;62.90;31.10;;;;;;;2.23;100.00;100088.13;273251;1267;22247;-90
2023/02/11 19:43:55;;;;;;;56.60;29.00;;;;;;;2.29;100.00;100094.19;271872;1267;25356;-89
2023/02/11 19:49:57;;;;;;;67.60;33.10;;;;;;;2.30;100.00;100096.19;273566;1267;23325;-90
2023/02/11 19:56:06;;;;;;;68.10;33.10;;;;;;;2.30;100.00;100100.92;273293;1269;22217;-90
2023/02/11 20:02:12;;;;;;;67.40;33.00;;;;;;;2.34;100.00;100100.06;273506;1267;22364;-90
2023/02/11 20:08:15;;;;;;;63.80;32.70;;;;;;;2.36;100.00;100099.34;272085;1268;22396;-90
2023/02/11 20:14:18;;;;;;;63.60;30.60;;;;;;;2.39;100.00;100105.06;271689;1267;22600;-90
2023/02/11 20:20:20;;;;;;;60.60;31.20;;;;;;;2.38;100.00;100110.65;270671;1267;22816;-90
2023/02/11 20:26:24;;;;;;;54.50;29.20;;;;;;;2.37;100.00;100113.58;271668;1267;22679;-90
2023/02/11 20:32:26;;;;;;;55.50;29.90;;;;;;;2.38;100.00;100110.76;270874;1270;22523;-90
2023/02/11 20:38:28;;;;;;;52.50;27.50;;;;;;;2.38;100.00;100105.35;272602;1268;22317;-90
2023/02/11 20:44:30;;;;;;;61.40;30.10;;;;;;;2.41;100.00;100109.02;273477;1267;22385;-90
2023/02/11 20:50:33;;;;;;;51.80;27.10;;;;;;;2.45;100.00;100109.49;273151;1267;22321;-91
2023/02/11 20:56:35;;;;;;;59.80;31.10;;;;;;;2.49;100.00;100109.39;270983;1269;22575;-90
2023/02/11 21:02:37;;;;;;;60.00;29.10;;;;;;;2.48;100.00;100116.15;270542;1268;22543;-89
2023/02/11 21:08:39;;;;;;;59.90;29.30;;;;;;;2.49;100.00;100119.06;270409;1267;22552;-90
2023/02/11 21:14:41;;;;;;;63.20;29.40;;;;;;;2.51;100.00;100128.60;273194;1264;22390;-90
2023/02/11 21:20:43;;;;;;;55.90;28.20;;;;;;;2.50;100.00;100129.04;273059;1267;22445;-90
2023/02/11 21:26:45;;;;;;;59.00;30.60;;;;;;;2.52;100.00;100137.55;271839;1269;223764;-88
2023/02/11 21:32:47;;;;;;;67.40;32.70;;;;;;;2.53;100.00;100139.26;271659;1267;22558;-89
2023/02/11 21:38:49;;;;;;;64.20;32.80;;;;;;;2.50;100.00;100139.73;270684;1269;22572;-90
2023/02/11 21:44:51;;;;;;;64.40;32.90;;;;;;;2.51;100.00;100144.75;270227;1267;22590;-90
2023/02/11 21:50:53;;;;;;;77.20;38.00;;;;;;;2.50;100.00;100150.30;270527;1269;22555;-89
2023/02/11 21:56:56;;;;;;;73.80;36.00;;;;;;;2.47;100.00;100159.93;270212;1267;22750;-89
2023/02/11 22:02:58;;;;;;;74.10;36.10;;;;;;;2.46;100.00;100167.55;270620;1267;22643;-89
2023/02/11 22:09:05;;;;;;;75.80;36.20;;;;;;;2.48;100.00;100182.98;270578;1267;25415;-90
2023/02/11 22:15:07;;;;;;;81.90;37.40;;;;;;;2.50;100.00;100190.25;272250;1267;23499;-90
2023/02/11 22:21:12;;;;;;;77.40;37.30;;;;;;;2.50;100.00;100196.30;270208;1270;22526;-90
2023/02/11 22:27:15;;;;;;;78.20;37.40;;;;;;;2.51;100.00;100199.96;270571;1267;22573;-90
2023/02/11 22:33:17;;;;;;;83.00;38.00;;;;;;;2.51;100.00;100196.71;271401;1259;22517;-89
2023/02/11 22:39:19;;;;;;;81.80;40.30;;;;;;;2.51;100.00;100203.84;270890;1267;22537;-91
2023/02/11 22:45:21;;;;;;;87.40;41.10;;;;;;;2.49;100.00;100199.83;271766;1267;23817;-91
2023/02/11 22:51:26;;;;;;;87.10;39.80;;;;;;;2.46;100.00;100205.23;271399;1267;23853;-90
2023/02/11 22:57:28;;;;;;;91.80;41.50;;;;;;;2.47;100.00;100212.83;271269;1269;22567;-90
2023/02/11 23:03:31;;;;;;;91.10;41.30;;;;;;;2.46;100.00;100213.23;269649;1267;23905;-89
2023/02/11 23:09:33;;;;;;;94.80;44.10;;;;;;;2.44;100.00;100219.64;269829;1268;24753;-90
2023/02/11 23:15:43;;;;;;;86.60;40.70;;;;;;;2.47;100.00;100228.55;269873;1267;25300;-90
2023/02/11 23:21:46;;;;;;;90.10;45.00;;;;;;;2.48;100.00;100226.55;269351;1266;22991;-89
2023/02/11 23:27:48;;;;;;;75.90;38.80;;;;;;;2.48;100.00;100230.70;270508;1267;26316;-90
2023/02/11 23:33:50;;;;;;;86.60;42.30;;;;;;;2.50;100.00;100232.63;270007;1267;22618;-90
2023/02/11 23:39:55;;;;;;;84.70;41.50;;;;;;;2.48;100.00;100233.77;269600;1269;22354;-91
2023/02/11 23:45:57;;;;;;;79.60;37.90;;;;;;;2.48;100.00;100237.30;270573;1267;22504;-90
2023/02/11 23:51:59;;;;;;;83.30;40.90;;;;;;;2.48;100.00;100245.20;272421;1267;23597;-90
2023/02/11 23:58:02;;;;;;;83.60;40.40;;;;;;;2.50;100.00;100244.84;272336;1267;23085;-89
